Time;durP1;ratioP1;P1;durP2;ratioP2;P2;SDS_P1;SDS_P2;PMS_P1;PMS_P2;Temp;Humidity;BMP_temperature;BMP_pressure;BME280_temperature;BME280_humidity;BME280_pressure;Samples;Min_cycle;Max_cycle;Signal;HPM_P1;HPM_P2
2023/08/18 00:00:37;;;;;;;2.88;2.00;;;19.80;99.90;;;;;;5056190;28;20396;-82
2023/08/18 00:03:04;;;;;;;4.47;2.28;;;19.90;99.90;;;;;;5054488;28;20037;-82
2023/08/18 00:05:30;;;;;;;1.73;1.20;;;20.00;99.90;;;;;;5055860;28;20029;-82
2023/08/18 00:07:55;;;;;;;3.80;2.33;;;20.10;99.90;;;;;;5056050;28;20528;-82
2023/08/18 00:10:22;;;;;;;2.13;1.92;;;20.10;99.70;;;;;;5054473;28;20120;-82
2023/08/18 00:12:47;;;;;;;4.47;2.90;;;20.10;99.70;;;;;;5055702;28;20079;-82
2023/08/18 00:15:13;;;;;;;3.10;2.80;;;20.00;99.70;;;;;;5055917;28;20025;-82
2023/08/18 00:17:41;;;;;;;3.25;2.70;;;19.80;99.90;;;;;;5054619;28;20029;-82
2023/08/18 00:20:08;;;;;;;3.08;2.60;;;19.80;99.90;;;;;;5056359;28;20036;-82
2023/08/18 00:22:34;;;;;;;2.30;2.10;;;19.90;99.90;;;;;;5055407;28;20044;-82
2023/08/18 00:24:59;;;;;;;2.33;1.65;;;20.00;99.90;;;;;;5055075;28;20032;-82
2023/08/18 00:27:25;;;;;;;2.15;1.52;;;20.00;99.90;;;;;;5054500;28;20044;-82
2023/08/18 00:29:51;;;;;;;1.98;1.88;;;20.20;99.90;;;;;;5055491;28;20071;-82
2023/08/18 00:32:16;;;;;;;2.58;2.35;;;20.30;99.80;;;;;;5055685;28;20381;-81
2023/08/18 00:34:42;;;;;;;3.05;1.55;;;20.40;99.60;;;;;;5070439;28;20037;-82
2023/08/18 00:37:08;;;;;;;1.90;1.80;;;20.30;99.40;;;;;;5055450;28;20033;-82
2023/08/18 00:39:33;;;;;;;2.05;1.80;;;20.30;99.30;;;;;;5037171;28;20537;-82
2023/08/18 00:41:59;;;;;;;2.42;1.65;;;20.40;99.30;;;;;;5054795;28;20035;-81
2023/08/18 00:44:25;;;;;;;1.95;1.83;;;20.40;99.20;;;;;;5053683;28;20051;-81
2023/08/18 00:46:51;;;;;;;1.30;1.20;;;20.40;99.10;;;;;;5053762;28;20033;-81
2023/08/18 00:49:18;;;;;;;1.50;0.90;;;20.50;99.10;;;;;;5054865;28;20035;-82
2023/08/18 00:51:45;;;;;;;1.15;1.05;;;20.50;99.10;;;;;;5036952;28;20473;-82
2023/08/18 00:54:12;;;;;;;1.80;1.45;;;20.60;99.00;;;;;;5054815;28;20083;-82
2023/08/18 00:56:39;;;;;;;1.55;0.98;;;20.70;98.90;;;;;;5053514;28;20045;-82
2023/08/18 00:59:06;;;;;;;1.80;1.58;;;20.70;98.90;;;;;;5053340;28;20025;-82
2023/08/18 01:01:33;;;;;;;4.15;1.52;;;20.60;98.60;;;;;;5054496;28;20060;-83
2023/08/18 01:03:59;;;;;;;2.78;2.33;;;20.60;98.70;;;;;;5054156;28;20079;-82
2023/08/18 01:06:25;;;;;;;2.90;2.20;;;20.50;98.50;;;;;;5054251;28;20040;-82
2023/08/18 01:08:51;;;;;;;1.65;1.55;;;20.50;98.70;;;;;;5036634;28;20355;-82
2023/08/18 01:11:51;;;;;;;2.38;2.17;;;20.40;98.70;;;;;;5054427;28;20029;-81
2023/08/18 01:14:37;;;;;;;2.10;1.15;;;20.40;98.70;;;;;;5053626;28;20449;-82
2023/08/18 01:17:10;;;;;;;3.05;2.85;;;20.50;98.80;;;;;;5054329;28;20032;-82
2023/08/18 01:19:36;;;;;;;2.00;1.70;;;20.60;98.60;;;;;;5053587;28;20024;-81
2023/08/18 01:22:06;;;;;;;2.45;2.25;;;20.50;98.60;;;;;;5053041;28;20078;-82
2023/08/18 01:24:31;;;;;;;3.90;2.30;;;20.50;98.50;;;;;;5054043;28;20025;-82
2023/08/18 01:26:57;;;;;;;3.35;2.58;;;20.40;98.50;;;;;;5053746;28;20113;-82
2023/08/18 01:29:23;;;;;;;2.08;1.83;;;20.30;98.70;;;;;;5052789;28;20428;-82
2023/08/18 01:31:55;;;;;;;3.30;2.42;;;20.20;98.90;;;;;;5054035;28;20115;-82
2023/08/18 01:34:23;;;;;;;1.10;0.95;;;20.20;98.90;;;;;;5053658;28;20422;-82
2023/08/18 01:36:51;;;;;;;1.63;1.52;;;20.30;98.90;;;;;;5054362;28;20183;-82
2023/08/18 01:39:19;;;;;;;2.63;1.52;;;20.30;98.90;;;;;;5053797;28;20090;-82
2023/08/18 01:41:46;;;;;;;3.45;2.47;;;20.40;98.80;;;;;;5054481;28;20242;-82
2023/08/18 01:44:16;;;;;;;3.40;1.90;;;20.40;98.70;;;;;;5054086;28;20036;-81
2023/08/18 01:46:42;;;;;;;3.63;3.30;;;20.30;98.70;;;;;;5053850;28;20116;-82
2023/08/18 01:49:07;;;;;;;1.98;1.75;;;20.20;98.70;;;;;;5054036;28;20099;-82
2023/08/18 01:51:33;;;;;;;2.25;1.92;;;20.10;98.80;;;;;;5052164;28;20080;-82
2023/08/18 01:53:59;;;;;;;1.88;1.45;;;20.10;98.90;;;;;;5035911;28;20029;-82
2023/08/18 01:56:25;;;;;;;3.33;2.45;;;20.10;99.00;;;;;;5035263;28;20045;-82
2023/08/18 01:58:50;;;;;;;2.80;2.10;;;20.10;99.00;;;;;;5052536;28;20045;-83
2023/08/18 02:01:16;;;;;;;1.95;1.48;;;20.00;99.10;;;;;;5053893;28;20028;-82
2023/08/18 02:03:42;;;;;;;2.75;1.52;;;19.90;99.20;;;;;;5053141;28;20040;-83
2023/08/18 02:06:08;;;;;;;2.05;1.33;;;19.90;99.30;;;;;;5053293;28;20065;-82
2023/08/18 02:08:34;;;;;;;1.27;1.02;;;20.00;99.40;;;;;;5052285;28;20065;-82
2023/08/18 02:11:04;;;;;;;2.20;1.65;;;20.20;99.40;;;;;;5053222;28;20063;-82
2023/08/18 02:13:33;;;;;;;3.35;1.85;;;20.30;99.10;;;;;;5052310;28;20060;-82
2023/08/18 02:15:59;;;;;;;3.17;1.27;;;20.30;98.80;;;;;;5053452;28;20496;-82
2023/08/18 02:18:25;;;;;;;3.38;2.72;;;20.20;98.90;;;;;;5052312;28;20115;-82
2023/08/18 02:20:59;;;;;;;1.30;0.98;;;20.30;98.80;;;;;;5053707;28;20104;-81
2023/08/18 02:23:24;;;;;;;1.25;1.15;;;20.20;98.90;;;;;;5052872;28;20036;-82
2023/08/18 02:25:50;;;;;;;1.95;1.38;;;20.30;99.00;;;;;;5053208;28;20025;-81
2023/08/18 02:28:19;;;;;;;2.38;1.52;;;20.40;98.90;;;;;;5053371;28;20036;-82
2023/08/18 02:30:45;;;;;;;2.22;1.50;;;20.30;98.70;;;;;;5052866;28;20025;-82
2023/08/18 02:33:10;;;;;;;2.17;1.55;;;20.30;98.80;;;;;;5052840;28;20087;-81
2023/08/18 02:35:36;;;;;;;3.03;2.30;;;20.30;98.70;;;;;;5053388;28;20033;-82
2023/08/18 02:38:02;;;;;;;2.67;2.33;;;20.30;98.80;;;;;;5051851;28;20029;-82
2023/08/18 02:40:27;;;;;;;2.65;2.00;;;20.20;98.70;;;;;;5053073;28;20029;-82
2023/08/18 02:42:53;;;;;;;2.00;1.80;;;20.10;98.80;;;;;;5035069;28;20037;-82
2023/08/18 02:45:18;;;;;;;7.78;4.60;;;20.10;98.80;;;;;;5052759;28;20497;-82
2023/08/18 02:47:44;;;;;;;3.63;3.25;;;20.00;98.80;;;;;;5034889;28;20087;-82
2023/08/18 02:50:10;;;;;;;1.60;1.50;;;19.90;99.40;;;;;;5054275;28;20052;-81
2023/08/18 02:52:36;;;;;;;1.85;1.70;;;19.90;99.30;;;;;;5057167;28;20033;-82
2023/08/18 02:55:01;;;;;;;2.70;1.58;;;20.00;99.30;;;;;;5056588;28;20053;-82
2023/08/18 02:57:27;;;;;;;1.48;1.20;;;20.10;99.30;;;;;;5057011;28;20051;-82
2023/08/18 02:59:53;;;;;;;1.73;1.10;;;20.10;99.20;;;;;;5056747;28;20033;-82
2023/08/18 03:02:18;;;;;;;3.37;2.73;;;20.20;99.20;;;;;;5038834;28;20029;-82
2023/08/18 03:04:44;;;;;;;4.25;3.22;;;20.30;99.10;;;;;;5055223;28;20500;-83
2023/08/18 03:07:09;;;;;;;2.42;1.48;;;20.10;98.80;;;;;;5055488;28;20040;-82
2023/08/18 03:09:35;;;;;;;2.72;2.00;;;20.00;99.10;;;;;;5055343;28;20048;-82
2023/08/18 03:12:01;;;;;;;5.32;3.58;;;20.00;99.20;;;;;;5056976;28;20040;-82
2023/08/18 03:14:26;;;;;;;3.50;3.08;;;20.10;99.20;;;;;;5056393;28;20045;-82
2023/08/18 03:16:52;;;;;;;4.00;3.65;;;20.00;99.20;;;;;;5056154;28;20385;-82
2023/08/18 03:19:18;;;;;;;1.30;1.20;;;20.00;99.20;;;;;;5056381;28;20029;-82
2023/08/18 03:21:43;;;;;;;2.63;2.40;;;20.10;99.30;;;;;;5056335;28;20033;-82
2023/08/18 03:24:09;;;;;;;3.03;2.50;;;20.10;99.20;;;;;;5056218;28;20493;-82
2023/08/18 03:26:35;;;;;;;3.97;3.47;;;20.20;99.20;;;;;;5056284;28;20033;-82
2023/08/18 03:29:00;;;;;;;5.03;4.40;;;20.20;99.10;;;;;;5055618;28;20083;-82
2023/08/18 03:31:26;;;;;;;5.30;4.25;;;20.10;99.00;;;;;;5056772;28;20029;-83
2023/08/18 03:33:52;;;;;;;2.70;2.50;;;20.00;99.10;;;;;;5056191;28;20032;-83
2023/08/18 03:36:18;;;;;;;2.08;1.88;;;19.90;99.30;;;;;;5055204;28;20099;-82
2023/08/18 03:38:44;;;;;;;4.72;3.85;;;20.00;99.50;;;;;;5056433;28;20458;-82
2023/08/18 03:41:09;;;;;;;5.38;3.85;;;20.10;99.40;;;;;;5056171;28;20473;-83
2023/08/18 03:43:35;;;;;;;5.28;4.78;;;20.10;99.30;;;;;;5055769;28;20481;-83
2023/08/18 03:46:15;;;;;;;3.53;2.90;;;20.10;99.20;;;;;;5056055;28;20048;-82
2023/08/18 03:48:41;;;;;;;2.45;1.38;;;20.10;99.20;;;;;;5055347;28;20401;-82
2023/08/18 03:51:06;;;;;;;2.17;1.50;;;20.20;99.20;;;;;;5055677;28;20033;-82
2023/08/18 03:53:32;;;;;;;4.65;4.25;;;20.30;99.20;;;;;;5056318;28;20374;-82
2023/08/18 03:55:59;;;;;;;3.60;2.63;;;20.30;98.90;;;;;;5054668;28;20025;-81
2023/08/18 03:58:25;;;;;;;5.57;4.47;;;20.30;99.00;;;;;;5054818;28;20430;-82
2023/08/18 04:00:50;;;;;;;3.47;3.17;;;20.20;99.20;;;;;;5055197;28;20151;-82
2023/08/18 04:03:16;;;;;;;4.13;3.72;;;20.20;99.00;;;;;;5055354;28;20065;-81
2023/08/18 04:05:47;;;;;;;3.75;2.95;;;20.20;99.10;;;;;;5055697;28;20118;-82
2023/08/18 04:08:15;;;;;;;3.92;3.03;;;20.30;99.10;;;;;;5055682;28;20469;-83
2023/08/18 04:10:41;;;;;;;2.95;2.65;;;20.20;99.00;;;;;;5055358;28;20033;-82
2023/08/18 04:13:07;;;;;;;4.57;3.35;;;20.30;99.10;;;;;;5055564;28;20095;-83
2023/08/18 04:15:32;;;;;;;5.50;3.95;;;20.30;99.00;;;;;;5055223;28;20025;-83
2023/08/18 04:17:58;;;;;;;4.07;3.60;;;20.20;99.00;;;;;;5054224;28;20140;-83
2023/08/18 04:20:24;;;;;;;5.43;4.93;;;20.20;99.10;;;;;;5055179;28;20028;-83
2023/08/18 04:22:49;;;;;;;7.82;6.30;;;20.10;99.00;;;;;;5056162;28;20054;-82
2023/08/18 04:25:15;;;;;;;5.60;5.10;;;20.00;99.20;;;;;;5055421;28;20098;-83
2023/08/18 04:27:41;;;;;;;9.25;7.05;;;19.90;99.40;;;;;;5053801;28;20374;-83
2023/08/18 04:30:07;;;;;;;6.00;4.90;;;19.90;99.60;;;;;;5054075;28;20516;-83
2023/08/18 04:32:32;;;;;;;4.03;3.58;;;19.90;99.70;;;;;;5055452;28;20531;-83
2023/08/18 04:34:59;;;;;;;5.60;4.28;;;19.90;99.70;;;;;;5055717;28;20032;-83
2023/08/18 04:37:25;;;;;;;3.92;3.47;;;19.90;99.70;;;;;;5055205;28;20029;-83
2023/08/18 04:39:52;;;;;;;12.05;8.52;;;19.90;99.70;;;;;;5053832;28;20021;-83
2023/08/18 04:42:17;;;;;;;7.00;5.82;;;19.80;99.80;;;;;;5037582;28;20418;-83
2023/08/18 04:44:43;;;;;;;11.10;7.07;;;19.70;99.90;;;;;;5053739;28;20067;-83
2023/08/18 04:47:09;;;;;;;5.75;5.25;;;19.80;99.90;;;;;;5053523;28;20040;-85
2023/08/18 04:49:34;;;;;;;9.70;6.50;;;19.80;99.90;;;;;;5054643;28;20040;-83
2023/08/18 04:52:00;;;;;;;10.75;8.07;;;19.80;99.90;;;;;;5053568;28;20051;-83
2023/08/18 04:54:25;;;;;;;6.32;5.13;;;19.80;99.90;;;;;;5053533;28;20033;-83
2023/08/18 04:56:59;;;;;;;11.13;9.23;;;19.80;99.90;;;;;;5053257;28;20045;-82
2023/08/18 04:59:26;;;;;;;5.38;4.70;;;19.80;99.90;;;;;;5054999;28;20492;-83
2023/08/18 05:01:52;;;;;;;7.70;6.90;;;19.80;99.90;;;;;;5053327;28;20033;-83
2023/08/18 05:04:18;;;;;;;10.43;6.90;;;19.80;99.90;;;;;;5053482;28;20474;-83
2023/08/18 05:06:44;;;;;;;9.05;6.32;;;19.90;99.90;;;;;;5054805;28;20044;-83
2023/08/18 05:09:10;;;;;;;4.18;3.78;;;19.80;99.90;;;;;;5054482;28;20029;-83
2023/08/18 05:11:35;;;;;;;6.90;5.07;;;19.90;99.90;;;;;;5054507;28;20041;-81
2023/08/18 05:14:01;;;;;;;9.70;6.82;;;19.90;99.90;;;;;;5054309;28;20039;-82
2023/08/18 05:16:27;;;;;;;8.13;6.43;;;19.90;99.90;;;;;;5054839;28;20146;-82
2023/08/18 05:18:52;;;;;;;5.18;4.68;;;19.90;99.90;;;;;;5054364;28;20056;-82
2023/08/18 05:21:18;;;;;;;17.02;11.43;;;19.90;99.90;;;;;;5052824;28;20036;-82
2023/08/18 05:23:44;;;;;;;8.93;6.35;;;19.80;99.90;;;;;;5053032;28;20078;-82
2023/08/18 05:26:09;;;;;;;7.90;5.28;;;19.80;99.90;;;;;;5052869;28;20045;-82
2023/08/18 05:28:35;;;;;;;15.40;10.30;;;19.80;99.90;;;;;;5054100;28;20033;-83
2023/08/18 05:31:01;;;;;;;10.77;8.55;;;19.90;99.90;;;;;;5054820;28;20051;-82
2023/08/18 05:33:27;;;;;;;12.30;8.55;;;19.90;99.90;;;;;;5054001;28;20186;-83
2023/08/18 05:35:52;;;;;;;11.13;6.90;;;19.90;99.90;;;;;;5052995;28;20033;-84
2023/08/18 05:38:18;;;;;;;7.60;5.82;;;20.00;99.90;;;;;;5054616;28;20029;-81
2023/08/18 05:40:52;;;;;;;4.60;4.03;;;19.90;99.90;;;;;;5052972;28;20067;-82
2023/08/18 05:43:18;;;;;;;13.23;8.45;;;20.00;99.90;;;;;;5053378;28;20045;-82
2023/08/18 05:45:46;;;;;;;12.82;8.48;;;20.10;99.90;;;;;;5054333;28;20032;-82
2023/08/18 05:48:12;;;;;;;17.15;12.38;;;20.10;99.90;;;;;;5053994;28;20032;-83
2023/08/18 05:50:38;;;;;;;13.25;10.30;;;20.00;99.90;;;;;;5054239;28;20025;-82
2023/08/18 05:53:04;;;;;;;15.25;10.23;;;19.80;99.90;;;;;;5053585;28;20045;-82
2023/08/18 05:55:31;;;;;;;14.88;9.95;;;19.80;99.90;;;;;;5053851;28;20078;-81
2023/08/18 05:58:03;;;;;;;10.68;7.80;;;19.80;99.90;;;;;;5053623;28;20057;-83
2023/08/18 06:00:30;;;;;;;15.23;11.13;;;19.70;99.90;;;;;;5052828;28;20087;-81
2023/08/18 06:02:57;;;;;;;13.45;9.60;;;19.70;99.90;;;;;;5053597;28;20032;-82
2023/08/18 06:05:31;;;;;;;18.30;12.90;;;19.60;99.90;;;;;;5052990;28;20029;-80
2023/08/18 06:07:57;;;;;;;11.38;8.52;;;19.40;99.90;;;;;;5054042;28;20458;-81
2023/08/18 06:10:23;;;;;;;18.23;12.40;;;19.40;99.90;;;;;;5053717;28;20036;-81
2023/08/18 06:12:49;;;;;;;15.95;10.18;;;19.50;99.90;;;;;;5052671;28;20048;-82
2023/08/18 06:15:16;;;;;;;12.10;7.93;;;19.40;99.90;;;;;;5053557;28;20033;-82
2023/08/18 06:17:42;;;;;;;16.00;10.93;;;19.30;99.90;;;;;;5053621;28;20042;-80
2023/08/18 06:20:08;;;;;;;15.25;10.70;;;19.30;99.90;;;;;;5053209;28;20025;-82
2023/08/18 06:22:33;;;;;;;15.70;10.23;;;19.30;99.90;;;;;;5053111;28;20109;-83
2023/08/18 06:24:59;;;;;;;17.27;10.57;;;19.30;99.90;;;;;;5054517;28;20048;-82
2023/08/18 06:27:24;;;;;;;13.73;10.60;;;19.30;99.90;;;;;;5056954;28;20029;-82
2023/08/18 06:29:50;;;;;;;17.38;10.20;;;19.30;99.90;;;;;;5057681;28;20036;-82
2023/08/18 06:32:16;;;;;;;9.40;6.82;;;19.30;99.90;;;;;;5057878;28;20033;-82
2023/08/18 06:34:41;;;;;;;12.52;7.82;;;19.50;99.90;;;;;;5057437;28;20458;-82
2023/08/18 06:37:07;;;;;;;10.25;8.00;;;19.60;99.90;;;;;;5057442;28;20075;-81
2023/08/18 06:39:33;;;;;;;10.43;7.22;;;19.60;99.90;;;;;;5057447;28;20358;-82
2023/08/18 06:41:58;;;;;;;13.30;10.40;;;19.80;99.90;;;;;;5057374;28;20071;-83
2023/08/18 06:44:24;;;;;;;14.07;10.35;;;19.80;99.90;;;;;;5056055;28;20119;-82
2023/08/18 06:46:50;;;;;;;12.20;8.23;;;19.60;99.90;;;;;;5056277;28;20033;-82
2023/08/18 06:49:15;;;;;;;18.33;13.05;;;19.50;99.90;;;;;;5056047;28;20378;-82
2023/08/18 06:51:41;;;;;;;20.58;13.25;;;19.40;99.90;;;;;;5057164;28;20078;-81
2023/08/18 06:54:06;;;;;;;19.63;12.50;;;19.40;99.90;;;;;;5056803;28;20041;-82
2023/08/18 06:56:32;;;;;;;18.17;11.50;;;19.40;99.90;;;;;;5056741;28;20378;-82
2023/08/18 06:58:58;;;;;;;15.75;11.80;;;19.40;99.90;;;;;;5057005;28;20037;-81
2023/08/18 07:01:25;;;;;;;17.73;11.85;;;19.50;99.90;;;;;;5057041;28;20033;-81
2023/08/18 07:03:50;;;;;;;16.92;11.13;;;19.40;99.90;;;;;;5038893;28;20052;-81
2023/08/18 07:06:16;;;;;;;20.58;12.10;;;19.50;99.90;;;;;;5056849;28;20033;-83
2023/08/18 07:08:42;;;;;;;20.88;12.65;;;19.50;99.90;;;;;;5056832;28;20037;-81
2023/08/18 07:11:07;;;;;;;15.95;11.35;;;19.50;99.90;;;;;;5057360;28;20104;-81
2023/08/18 07:13:34;;;;;;;15.68;10.48;;;19.50;99.90;;;;;;5055419;28;20057;-82
2023/08/18 07:15:59;;;;;;;13.32;9.02;;;19.50;99.90;;;;;;5056603;28;20029;-82
2023/08/18 07:18:25;;;;;;;14.50;10.02;;;19.60;99.90;;;;;;5055673;28;20033;-82
2023/08/18 07:20:52;;;;;;;14.38;9.60;;;19.70;99.90;;;;;;5055617;28;20115;-81
2023/08/18 07:23:18;;;;;;;13.40;10.10;;;19.80;99.90;;;;;;5055187;28;20029;-82
2023/08/18 07:25:45;;;;;;;16.42;9.50;;;19.80;99.90;;;;;;5055399;28;20060;-82
2023/08/18 07:28:11;;;;;;;7.68;5.53;;;19.70;99.90;;;;;;5056067;28;20033;-81
2023/08/18 07:30:36;;;;;;;9.57;6.35;;;19.80;99.90;;;;;;5056344;28;20029;-81
2023/08/18 07:33:02;;;;;;;11.70;9.15;;;19.90;99.90;;;;;;5056859;28;20035;-81
2023/08/18 07:35:28;;;;;;;14.82;10.98;;;20.00;99.90;;;;;;5055760;28;20031;-81
2023/08/18 07:37:54;;;;;;;15.07;10.57;;;20.00;99.90;;;;;;5054889;28;20041;-81
2023/08/18 07:40:20;;;;;;;14.25;11.70;;;20.00;99.90;;;;;;5055515;28;20037;-81
2023/08/18 07:42:45;;;;;;;16.77;11.63;;;20.00;99.90;;;;;;5056667;28;20157;-81
2023/08/18 07:45:11;;;;;;;13.45;11.35;;;20.00;99.90;;;;;;5055883;28;20436;-83
2023/08/18 07:47:38;;;;;;;14.23;10.85;;;19.90;99.90;;;;;;5056417;28;20025;-81
2023/08/18 07:50:07;;;;;;;13.77;10.23;;;19.80;99.90;;;;;;5056607;28;20039;-80
2023/08/18 07:52:34;;;;;;;15.25;11.10;;;19.90;99.90;;;;;;5055670;28;20470;-80
2023/08/18 07:54:59;;;;;;;13.27;10.48;;;20.00;99.90;;;;;;5054824;28;20036;-81
2023/08/18 07:57:25;;;;;;;14.13;10.05;;;20.00;99.90;;;;;;5055826;28;20061;-82
2023/08/18 07:59:51;;;;;;;18.13;11.82;;;20.10;99.90;;;;;;5055682;28;20040;-81
2023/08/18 08:02:16;;;;;;;16.42;10.57;;;20.10;99.90;;;;;;5056133;28;20464;-81
2023/08/18 08:04:42;;;;;;;13.95;10.50;;;20.00;99.90;;;;;;5054415;28;20389;-81
2023/08/18 08:07:07;;;;;;;15.48;10.07;;;20.00;99.90;;;;;;5055428;28;20037;-81
2023/08/18 08:09:33;;;;;;;13.50;9.30;;;20.00;99.90;;;;;;5055344;28;20082;-80
2023/08/18 08:11:59;;;;;;;18.00;12.95;;;20.10;99.90;;;;;;5054184;28;20029;-80
2023/08/18 08:14:24;;;;;;;19.25;13.48;;;20.10;99.90;;;;;;5055857;28;20543;-81
2023/08/18 08:16:50;;;;;;;16.58;12.95;;;20.10;99.90;;;;;;5055264;28;20481;-80
2023/08/18 08:19:17;;;;;;;18.08;13.20;;;20.00;99.90;;;;;;5055693;28;20037;-80
2023/08/18 08:21:42;;;;;;;14.88;10.85;;;20.10;99.90;;;;;;5056182;28;20091;-80
2023/08/18 08:24:08;;;;;;;17.42;11.68;;;20.20;99.90;;;;;;5055340;28;20404;-80
2023/08/18 08:26:34;;;;;;;12.82;10.10;;;20.30;99.90;;;;;;5055438;28;20029;-80
2023/08/18 08:29:00;;;;;;;18.00;11.32;;;20.30;99.90;;;;;;5055382;28;20025;-81
2023/08/18 08:31:26;;;;;;;10.65;8.65;;;20.40;99.90;;;;;;5055083;28;20033;-80
2023/08/18 08:33:51;;;;;;;15.68;12.98;;;20.40;99.90;;;;;;5055379;28;20096;-80
2023/08/18 08:36:17;;;;;;;11.98;10.05;;;20.50;99.90;;;;;;5054321;28;20124;-81
2023/08/18 08:38:43;;;;;;;12.82;10.65;;;20.40;99.90;;;;;;5054766;28;20025;-81
2023/08/18 08:41:09;;;;;;;9.95;8.95;;;20.50;99.90;;;;;;5055077;28;20109;-81
2023/08/18 08:43:35;;;;;;;10.82;9.20;;;20.50;99.90;;;;;;5054943;28;20041;-80
2023/08/18 08:46:01;;;;;;;16.73;12.57;;;20.50;99.90;;;;;;5054960;28;20174;-82
2023/08/18 08:48:40;;;;;;;11.55;8.98;;;20.50;99.90;;;;;;5052967;28;20111;-80
2023/08/18 08:51:10;;;;;;;12.00;10.15;;;20.50;99.90;;;;;;5055326;28;20025;-81
2023/08/18 08:53:39;;;;;;;13.85;10.98;;;20.60;99.90;;;;;;5055114;28;20108;-81
2023/08/18 08:56:07;;;;;;;15.57;11.15;;;20.70;99.90;;;;;;5054883;28;20458;-81
2023/08/18 08:58:36;;;;;;;13.93;11.40;;;20.70;99.90;;;;;;5054838;28;20036;-81
2023/08/18 09:01:04;;;;;;;14.43;11.57;;;20.70;99.90;;;;;;5055086;28;20135;-81
2023/08/18 09:03:30;;;;;;;14.60;11.43;;;20.70;99.90;;;;;;5053859;28;20087;-82
2023/08/18 09:05:55;;;;;;;10.38;8.68;;;20.70;99.90;;;;;;5053403;28;20443;-83
2023/08/18 09:08:21;;;;;;;11.52;9.52;;;20.80;99.90;;;;;;5053498;28;20369;-81
2023/08/18 09:10:48;;;;;;;10.73;8.70;;;20.90;99.90;;;;;;5052976;28;20464;-82
2023/08/18 09:13:14;;;;;;;12.55;10.00;;;21.00;99.90;;;;;;5054127;28;20079;-81
2023/08/18 09:15:44;;;;;;;9.38;8.25;;;21.00;99.90;;;;;;5052738;28;20025;-79
2023/08/18 09:18:11;;;;;;;12.55;9.75;;;21.10;99.90;;;;;;5053862;28;20527;-81
2023/08/18 09:20:37;;;;;;;9.95;8.60;;;21.10;99.90;;;;;;5054246;28;20029;-80
2023/08/18 09:23:03;;;;;;;11.13;9.63;;;21.10;99.90;;;;;;5054130;28;20043;-81
2023/08/18 09:25:33;;;;;;;11.15;9.00;;;21.10;99.90;;;;;;5054328;28;20071;-81
2023/08/18 09:27:59;;;;;;;10.10;9.02;;;21.10;99.90;;;;;;5053949;28;20021;-80
2023/08/18 09:30:24;;;;;;;11.18;8.48;;;21.10;99.90;;;;;;5054627;28;20124;-80
2023/08/18 09:32:51;;;;;;;12.73;9.15;;;21.20;99.90;;;;;;5054519;28;20040;-79
2023/08/18 09:35:21;;;;;;;8.50;7.60;;;21.20;99.90;;;;;;5052660;28;20033;-80
2023/08/18 09:37:57;;;;;;;8.98;7.93;;;21.20;99.90;;;;;;5054283;28;20075;-80
2023/08/18 09:40:23;;;;;;;9.77;7.90;;;21.40;99.90;;;;;;5053054;28;20090;-80
2023/08/18 09:42:48;;;;;;;13.02;9.50;;;21.60;99.90;;;;;;5054017;28;20039;-80
2023/08/18 09:45:14;;;;;;;11.70;10.20;;;21.80;99.90;;;;;;5052876;28;20041;-81
2023/08/18 09:47:44;;;;;;;10.82;9.23;;;21.90;99.90;;;;;;5053966;28;20384;-82
2023/08/18 09:50:10;;;;;;;11.25;8.23;;;22.00;99.90;;;;;;5053849;28;20036;-81
2023/08/18 09:52:38;;;;;;;9.73;8.40;;;22.10;99.90;;;;;;5053519;28;20061;-80
2023/08/18 09:55:19;;;;;;;10.30;8.65;;;22.30;99.90;;;;;;5053419;28;20469;-80
2023/08/18 09:58:11;;;;;;;10.35;9.00;;;22.50;99.90;;;;;;5053494;28;20041;-80
2023/08/18 10:00:41;;;;;;;11.00;9.60;;;22.70;99.90;;;;;;5051909;28;20073;-80
2023/08/18 10:03:08;;;;;;;10.07;8.48;;;22.80;99.90;;;;;;5053014;28;20111;-82
2023/08/18 10:05:34;;;;;;;10.82;9.25;;;22.80;99.90;;;;;;5053219;28;20037;-81
2023/08/18 10:08:02;;;;;;;10.77;9.68;;;22.90;99.60;;;;;;5053231;28;20064;-82
2023/08/18 10:10:28;;;;;;;9.18;7.88;;;22.90;99.90;;;;;;5053179;28;20029;-81
2023/08/18 10:12:54;;;;;;;12.82;9.30;;;23.00;99.90;;;;;;5053088;28;20078;-82
2023/08/18 10:15:24;;;;;;;10.32;7.82;;;23.30;99.50;;;;;;5052407;28;20458;-82
2023/08/18 10:17:50;;;;;;;8.13;7.30;;;23.20;99.10;;;;;;5053147;28;20037;-81
2023/08/18 10:20:16;;;;;;;8.13;7.28;;;23.30;98.90;;;;;;5053090;28;20090;-81
2023/08/18 10:22:42;;;;;;;9.13;7.68;;;23.50;98.70;;;;;;5052672;28;20037;-80
2023/08/18 10:25:08;;;;;;;9.50;7.72;;;23.60;98.80;;;;;;5053284;28;20037;-81
2023/08/18 10:27:40;;;;;;;8.18;6.68;;;23.70;98.50;;;;;;5053350;28;20108;-80
2023/08/18 10:30:09;;;;;;;9.95;8.93;;;23.90;98.10;;;;;;5053272;28;20028;-81
2023/08/18 10:32:35;;;;;;;9.93;8.88;;;24.10;98.30;;;;;;5052644;28;20021;-80
2023/08/18 10:35:20;;;;;;;8.15;7.03;;;24.10;97.50;;;;;;5068145;28;20037;-82
2023/08/18 10:38:12;;;;;;;9.38;7.43;;;24.30;97.30;;;;;;5052748;28;20061;-81
2023/08/18 10:40:38;;;;;;;11.32;7.50;;;24.40;97.20;;;;;;5052465;28;20107;-81
2023/08/18 10:43:14;;;;;;;10.93;8.60;;;24.60;97.60;;;;;;5052556;28;20389;-80
2023/08/18 10:45:49;;;;;;;7.35;6.60;;;24.80;97.10;;;;;;5052426;28;20033;-80
2023/08/18 10:48:15;;;;;;;9.13;8.13;;;24.70;97.10;;;;;;5052917;28;20110;-81
2023/08/18 10:50:44;;;;;;;9.48;7.75;;;24.80;96.80;;;;;;5052791;28;20482;-82
2023/08/18 10:53:12;;;;;;;11.05;9.48;;;24.90;96.60;;;;;;5052836;28;20032;-80
2023/08/18 10:55:37;;;;;;;11.18;9.38;;;25.00;96.40;;;;;;5051683;28;20025;-82
2023/08/18 10:58:03;;;;;;;10.35;7.60;;;24.90;96.40;;;;;;5052345;28;20365;-81
2023/08/18 11:00:33;;;;;;;11.77;9.35;;;24.90;96.50;;;;;;5052934;28;20036;-80
2023/08/18 11:02:59;;;;;;;9.93;7.43;;;25.00;96.80;;;;;;5052537;28;20535;-84
2023/08/18 11:05:25;;;;;;;10.70;9.27;;;25.10;96.40;;;;;;5051240;28;20037;-81
2023/08/18 11:07:52;;;;;;;14.05;10.57;;;25.10;96.00;;;;;;5052931;28;20094;-82
2023/08/18 11:10:22;;;;;;;10.63;8.98;;;25.20;96.30;;;;;;5051775;28;20099;-82
2023/08/18 11:12:49;;;;;;;9.30;6.40;;;25.10;96.50;;;;;;5056820;28;20461;-81
2023/08/18 11:15:18;;;;;;;8.77;7.88;;;25.20;96.50;;;;;;5056454;28;20086;-82
2023/08/18 11:17:44;;;;;;;9.82;8.88;;;25.40;96.40;;;;;;5056282;28;20112;-81
2023/08/18 11:20:13;;;;;;;7.75;6.63;;;25.60;96.20;;;;;;5054792;28;20120;-81
2023/08/18 11:22:44;;;;;;;9.65;8.65;;;25.70;96.10;;;;;;5055693;28;20025;-81
2023/08/18 11:25:14;;;;;;;9.02;7.97;;;25.80;95.30;;;;;;5054465;28;20450;-81
2023/08/18 11:27:40;;;;;;;10.48;9.48;;;25.80;95.60;;;;;;5056005;28;20033;-81
2023/08/18 11:30:14;;;;;;;13.82;9.15;;;25.90;95.00;;;;;;5056270;28;20035;-82
2023/08/18 11:32:41;;;;;;;10.77;9.75;;;26.00;95.00;;;;;;5056570;28;20032;-81
2023/08/18 11:35:11;;;;;;;10.82;9.73;;;26.00;95.00;;;;;;5055241;28;20033;-80
2023/08/18 11:37:42;;;;;;;10.18;9.20;;;26.00;95.10;;;;;;5056628;28;20036;-83
2023/08/18 11:40:12;;;;;;;10.07;9.07;;;25.90;95.20;;;;;;5056334;28;20082;-82
2023/08/18 11:42:40;;;;;;;10.45;9.35;;;25.90;95.50;;;;;;5056456;28;20424;-81
2023/08/18 11:45:16;;;;;;;9.98;8.98;;;25.80;95.90;;;;;;5056199;28;20029;-80
2023/08/18 11:47:57;;;;;;;9.20;8.35;;;25.90;95.60;;;;;;5057734;28;20123;-80
2023/08/18 11:50:33;;;;;;;9.40;8.50;;;26.00;95.60;;;;;;5057161;28;20040;-83
2023/08/18 11:53:01;;;;;;;9.80;8.80;;;26.00;95.30;;;;;;5057790;28;20029;-81
2023/08/18 11:55:33;;;;;;;7.65;6.95;;;26.10;95.20;;;;;;5055766;28;20051;-80
2023/08/18 11:58:04;;;;;;;8.35;7.47;;;26.20;95.20;;;;;;5055544;28;20049;-82
2023/08/18 12:00:35;;;;;;;14.50;8.73;;;26.40;95.20;;;;;;5054461;28;20024;-81
2023/08/18 12:03:02;;;;;;;11.20;9.57;;;26.50;94.70;;;;;;5056281;28;20025;-80
2023/08/18 12:05:28;;;;;;;10.00;9.00;;;26.40;94.40;;;;;;5055794;28;20033;-82
2023/08/18 12:07:54;;;;;;;9.32;8.43;;;26.50;94.70;;;;;;5055572;28;20033;-81
2023/08/18 12:10:21;;;;;;;9.30;8.40;;;26.50;94.60;;;;;;5056154;28;20025;-81
2023/08/18 12:12:54;;;;;;;9.52;8.02;;;26.50;95.10;;;;;;5055275;28;20496;-82
2023/08/18 12:15:24;;;;;;;10.23;6.80;;;26.60;94.70;;;;;;5055790;28;20029;-81
2023/08/18 12:17:49;;;;;;;10.27;9.35;;;26.70;94.30;;;;;;5055740;28;20461;-81
2023/08/18 12:20:18;;;;;;;8.88;8.02;;;26.60;94.30;;;;;;5055893;28;20043;-82
2023/08/18 12:22:48;;;;;;;9.65;8.70;;;26.50;94.60;;;;;;5054288;28;20064;-82
2023/08/18 12:25:14;;;;;;;8.18;7.47;;;26.50;95.00;;;;;;5055377;28;20064;-82
2023/08/18 12:27:40;;;;;;;10.18;8.48;;;26.50;94.60;;;;;;5055479;28;20466;-80
2023/08/18 12:30:07;;;;;;;10.68;9.77;;;26.60;94.80;;;;;;5055245;28;20037;-83
2023/08/18 12:32:33;;;;;;;8.73;7.93;;;26.70;94.00;;;;;;5055764;28;20037;-84
2023/08/18 12:34:58;;;;;;;9.13;7.93;;;26.70;94.00;;;;;;5054896;28;20079;-82
2023/08/18 12:37:24;;;;;;;10.57;9.55;;;26.80;94.00;;;;;;5055319;28;20457;-81
2023/08/18 12:39:50;;;;;;;6.47;5.85;;;26.80;93.90;;;;;;5055314;28;20025;-83